Pagrindinis puslapis
METAR-TAF:

METAR-TAF

Oro uostai :

Sakonakhonas, Tailandas

platuma: 17-11-42N, ilguma: 104-07-08E, Aukštis: 161 m

Dabartinis oras

Ataskaita buvo paskelbta 49 minutes, ne 07:00 UTC
Vėjas 5 kt iš Pietų/Pietryčių, svyruoja nuo Rytų ir Pietų/Pietvakarių
Temperatūra 30°C
Drėgmė 38%
Slėgis 1017 hPa
Matomumas 10 km arba daugiau
nėra debesų žemiau 1500 m ir nėra kamuolinių lietaus debesų

METAR: VTUI 230700Z 16005KT 090V210 CAVOK 30/14 Q1017 NOSIG

Laikas: 14:49 (07:49 UTC)

Prognozė

Ataskaita buvo paskelbta 2 valandos ir 49 minutes, ne 05:00 UTC
Prognozė galioja nuo 23 metu 06 UTC su 24 metu 06 UTC
Vėjas 10 kt iš Rytų
Matomumas 10 km arba daugiau
nėra debesų žemiau 1500 m ir nėra kamuolinių lietaus debesų

TAF: VTUI 230500Z 2306/2406 09010KT CAVOK

Orai ataskaitas ir orų prognozės (METAR, TAF).

turimą stotys yra geltonos ir raudonos taškus žemėlapyje.

Perkelti pele per norėdami pamatyti stoties vardą.

Tada spustelėkite, norėdami matyti oro stebėjimo ir prognozės.

Norėdami pakeisti žemėlapį: spustelėkite ant žalios mygtukų su juodo kryžiaus žemyn,; žalią mygtuką su brūkšneliu, jei norite nutolinti; arba žalių rodyklių gretimoms žemėlapius.


METAR-TAF: